Gaschem Jade — ELSU9 — position and weather

sailwx.info

Track history (hours):
 
Tides and Currents Weather Stations Pressure Air Temp Water Temp Dewpoint Dewpoint Depression Visibility Wind Speed Wind Dir Waves Ship Positions

Gaschem Jade

Last reported at 2015-Jul-31 20:26 UTC. Time now 2015-Aug-02 14:21 UTC.
Position N 36°21' W 000°17'.

Length 113.2 m; beam 15.9 m; draft 6.1 m.

Type: Ship. MMSI: 636090168.

Date/timePositionNaut miles runAvg speedWind from/ knotsBaromVisibWave heightAir tempDewpointWater temp
2015-Jul-31 20:26N 36°21' W 000°17'1 1.3
2015-Jul-31 19:29N 36°19' W 000°17'9 9.7
2015-Jul-31 18:33N 36°13' W 000°10'14 0.4
2015-Jul-30 02:04N 36°27' W 000°09'1 1.2
2015-Jul-30 01:22N 36°27' W 000°10'7 0.5
2015-Jul-29 11:07N 36°24' W 000°18'0 0.2
2015-Jul-29 10:26N 36°24' W 000°18'1 0.3
2015-Jul-29 07:06N 36°23' W 000°19'0 0.6
2015-Jul-29 06:14N 36°23' W 000°20'0 0.3
2015-Jul-29 05:28N 36°23' W 000°20'0 0.4
2015-Jul-29 04:20N 36°23' W 000°20'1 0.7
2015-Jul-29 03:33N 36°23' W 000°21'1 0.8
2015-Jul-29 02:33N 36°23' W 000°22'1 1.0
2015-Jul-29 01:33N 36°24' W 000°23'2 0.8
2015-Jul-28 22:32N 36°23' W 000°26'1 0.7
2015-Jul-28 20:20N 36°21' W 000°26'1 0.7
2015-Jul-28 19:21N 36°21' W 000°26'4 2.0
2015-Jul-28 17:12N 36°18' W 000°22'10 0.6
2015-Jul-28 01:25N 36°10' W 000°15'1 0.7
2015-Jul-28 00:27N 36°10' W 000°16'2 0.7
2015-Jul-27 21:33N 36°09' W 000°19'2210.2
2015-Jul-27 19:20N 36°03' W 000°45'3711.7
2015-Jul-27 16:09N 35°50' W 001°29'1111.4
2015-Jul-27 15:14N 35°46' W 001°40'811.6
2015-Jul-27 14:32N 35°42' W 001°50'1111.5
2015-Jul-27 13:33N 35°38' W 002°02'2711.9
2015-Jul-27 11:16N 35°26' W 002°32'  
2015-Jul-24 14:29N 35°17' W 002°53'0 0.0
2015-Jul-24 11:25N 35°17' W 002°53'9310.4
2015-Jul-24 02:33N 35°57' W 001°11'1210.6
2015-Jul-24 01:27N 36°01' W 000°57'2510.4
2015-Jul-23 23:04N 36°03' W 000°27'611.4
2015-Jul-23 22:33N 36°01' W 000°20'10 0.6
2015-Jul-23 05:30N 35°51' W 000°16'8 7.4
2015-Jul-23 04:25N 35°59' W 000°14'2 2.3
2015-Jul-23 03:31N 35°57' W 000°15'22 7.1
2015-Jul-23 00:26N 36°03' W 000°42'  
Track history (hours):
 
Tides and Currents Weather Stations Pressure Air Temp Water Temp Dewpoint Dewpoint Depression Visibility Wind Speed Wind Dir Waves Ship Positions

Gaschem Jade

Last reported at 2015-Jul-31 20:26 UTC. Time now 2015-Aug-02 14:21 UTC.
Position N 36°21' W 000°17'.

Length 113.2 m; beam 15.9 m; draft 6.1 m.

Type: Ship. MMSI: 636090168.

Date/timePositionNaut miles runAvg speedWind from/ knotsBaromVisibWave heightAir tempDewpointWater temp
2015-Jul-31 20:26N 36°21' W 000°17'1 1.3
2015-Jul-31 19:29N 36°19' W 000°17'9 9.7
2015-Jul-31 18:33N 36°13' W 000°10'14 0.4
2015-Jul-30 02:04N 36°27' W 000°09'1 1.2
2015-Jul-30 01:22N 36°27' W 000°10'7 0.5
2015-Jul-29 11:07N 36°24' W 000°18'0 0.2
2015-Jul-29 10:26N 36°24' W 000°18'1 0.3
2015-Jul-29 07:06N 36°23' W 000°19'0 0.6
2015-Jul-29 06:14N 36°23' W 000°20'0 0.3
2015-Jul-29 05:28N 36°23' W 000°20'0 0.4
2015-Jul-29 04:20N 36°23' W 000°20'1 0.7
2015-Jul-29 03:33N 36°23' W 000°21'1 0.8
2015-Jul-29 02:33N 36°23' W 000°22'1 1.0
2015-Jul-29 01:33N 36°24' W 000°23'2 0.8
2015-Jul-28 22:32N 36°23' W 000°26'1 0.7
2015-Jul-28 20:20N 36°21' W 000°26'1 0.7
2015-Jul-28 19:21N 36°21' W 000°26'4 2.0
2015-Jul-28 17:12N 36°18' W 000°22'10 0.6
2015-Jul-28 01:25N 36°10' W 000°15'1 0.7
2015-Jul-28 00:27N 36°10' W 000°16'2 0.7
2015-Jul-27 21:33N 36°09' W 000°19'2210.2
2015-Jul-27 19:20N 36°03' W 000°45'3711.7
2015-Jul-27 16:09N 35°50' W 001°29'1111.4
2015-Jul-27 15:14N 35°46' W 001°40'811.6
2015-Jul-27 14:32N 35°42' W 001°50'1111.5
2015-Jul-27 13:33N 35°38' W 002°02'2711.9
2015-Jul-27 11:16N 35°26' W 002°32'  
2015-Jul-24 14:29N 35°17' W 002°53'0 0.0
2015-Jul-24 11:25N 35°17' W 002°53'9310.4
2015-Jul-24 02:33N 35°57' W 001°11'1210.6
2015-Jul-24 01:27N 36°01' W 000°57'2510.4
2015-Jul-23 23:04N 36°03' W 000°27'611.4
2015-Jul-23 22:33N 36°01' W 000°20'10 0.6
2015-Jul-23 05:30N 35°51' W 000°16'8 7.4
2015-Jul-23 04:25N 35°59' W 000°14'2 2.3
2015-Jul-23 03:31N 35°57' W 000°15'22 7.1
2015-Jul-23 00:26N 36°03' W 000°42'  

Dump ship's entire track history